Terminal Aerodrome Forecast
Issued by NWS Jackson, MS

Home | Current Version | Previous Version | Text Only | Print | Product List | Glossary On
Versions: 1 2 3 4 5 6 7 8 9 10 11 12 13 14 15 16
697
FTUS44 KJAN 061129
TAFJAN
TAF
KJAN 061129Z 0612/0712 27015G21KT P6SM OVC007
     FM061900 32007KT P6SM OVC007
     FM070600 36004KT P6SM OVC003=

USA.gov is the U.S. government's official web portal to all federal, state and local government web resources and services.